首页
METAR-TAF:

METAR-TAF

机场 :

通贝斯, 秘鲁

纬度: 03-33S, 经度: 080-24W, 海拔: 25米

当前天气观测

该预报发布于8小时和51分钟前的03:00 UTC
风速3节,风向西北
温度 24°C
湿度 78%
气压 1012 hPa
能见度10公里或以上
多云层高于1400英尺

METAR: SPME 190300Z 31003KT 9999 BKN014 24/20 Q1012 RMK BIRD HAZARD RWY 32/14 PP000

时间: 06:51 (11:51 UTC)

预报

该预报发布于51分钟前的11:00 UTC
预报有效从19日的 12点(UTC)到 20日的 12点(UTC)
风速5节,风向西
能见度10公里或以上
多云层高于1400英尺
成为
从 19日的 15点(UTC)到 19日的 17点(UTC)
风速11节,风向
少量云层高于1700英尺
成为
从 19日的 23点(UTC)到 20日的 01点(UTC)
风速5节,风向西转西南

TAF: SPME 191100Z 1912/2012 28005KT 9999 BKN014 TX28/1919Z TN21/2011Z BECMG 1915/1917 36011KT FEW017 BECMG 1923/2001 24005KT

超过4000个机场的气象观测和天气预报(METAR&TAF报告)。

可查询的气象台以黄色和红色小点在地图上表示。

将鼠标移到小点上方,可查看气象台名称。

然后点击查看天气观测和预报。

如需切换地图:点击带黑十字的绿色按钮放大地图;点击带横线的绿色按钮缩小地图;或者点击绿色箭头查看邻近地区的地图。


METAR-TAF: